sensor_id;sensor_type;location;lat;lon;timestamp;P1;durP1;ratioP1;P2;durP2;ratioP2
73593;SDS011;64760;53.404;23.498;2023-04-24T00:01:04;5.57;;;2.72;;
73593;SDS011;64760;53.404;23.498;2023-04-24T00:03:33;4.22;;;2.28;;
73593;SDS011;64760;53.404;23.498;2023-04-24T00:06:00;5.22;;;2.50;;
73593;SDS011;64760;53.404;23.498;2023-04-24T00:08:27;4.55;;;2.47;;
73593;SDS011;64760;53.404;23.498;2023-04-24T00:10:53;4.47;;;2.33;;
73593;SDS011;64760;53.404;23.498;2023-04-24T00:13:20;4.90;;;2.45;;
73593;SDS011;64760;53.404;23.498;2023-04-24T00:15:46;5.18;;;2.33;;
73593;SDS011;64760;53.404;23.498;2023-04-24T00:18:13;4.55;;;2.45;;
73593;SDS011;64760;53.404;23.498;2023-04-24T00:20:40;4.75;;;2.60;;
73593;SDS011;64760;53.404;23.498;2023-04-24T00:23:06;3.40;;;2.10;;
73593;SDS011;64760;53.404;23.498;2023-04-24T00:25:33;4.30;;;2.30;;
73593;SDS011;64760;53.404;23.498;2023-04-24T00:27:59;4.18;;;2.20;;
73593;SDS011;64760;53.404;23.498;2023-04-24T00:30:26;3.90;;;2.45;;
73593;SDS011;64760;53.404;23.498;2023-04-24T00:32:53;5.95;;;2.30;;
73593;SDS011;64760;53.404;23.498;2023-04-24T00:35:19;6.80;;;2.65;;
73593;SDS011;64760;53.404;23.498;2023-04-24T00:37:46;6.00;;;2.40;;
73593;SDS011;64760;53.404;23.498;2023-04-24T00:40:12;4.32;;;2.20;;
73593;SDS011;64760;53.404;23.498;2023-04-24T00:42:39;5.40;;;2.17;;
73593;SDS011;64760;53.404;23.498;2023-04-24T00:47:33;4.97;;;2.40;;
73593;SDS011;64760;53.404;23.498;2023-04-24T00:50:01;4.97;;;2.50;;
73593;SDS011;64760;53.404;23.498;2023-04-24T00:52:31;5.30;;;2.42;;
73593;SDS011;64760;53.404;23.498;2023-04-24T00:54:58;4.57;;;2.00;;
73593;SDS011;64760;53.404;23.498;2023-04-24T00:57:25;4.13;;;2.25;;
73593;SDS011;64760;53.404;23.498;2023-04-24T00:59:52;3.20;;;1.88;;
73593;SDS011;64760;53.404;23.498;2023-04-24T01:02:19;4.10;;;2.28;;
73593;SDS011;64760;53.404;23.498;2023-04-24T01:04:47;5.40;;;2.00;;
73593;SDS011;64760;53.404;23.498;2023-04-24T01:07:15;4.57;;;2.17;;
73593;SDS011;64760;53.404;23.498;2023-04-24T01:09:44;4.35;;;2.42;;
73593;SDS011;64760;53.404;23.498;2023-04-24T01:12:14;8.23;;;2.40;;
73593;SDS011;64760;53.404;23.498;2023-04-24T01:14:44;5.13;;;2.25;;
73593;SDS011;64760;53.404;23.498;2023-04-24T01:17:11;4.32;;;2.00;;
73593;SDS011;64760;53.404;23.498;2023-04-24T01:19:37;4.43;;;2.33;;
73593;SDS011;64760;53.404;23.498;2023-04-24T01:22:08;5.50;;;2.35;;
73593;SDS011;64760;53.404;23.498;2023-04-24T01:24:36;5.05;;;2.35;;
73593;SDS011;64760;53.404;23.498;2023-04-24T01:27:04;7.25;;;3.03;;
73593;SDS011;64760;53.404;23.498;2023-04-24T01:29:30;7.65;;;3.08;;
73593;SDS011;64760;53.404;23.498;2023-04-24T01:31:57;5.65;;;2.65;;
73593;SDS011;64760;53.404;23.498;2023-04-24T01:34:24;5.53;;;2.55;;
73593;SDS011;64760;53.404;23.498;2023-04-24T01:36:51;4.78;;;2.17;;
73593;SDS011;64760;53.404;23.498;2023-04-24T01:39:17;4.55;;;2.60;;
73593;SDS011;64760;53.404;23.498;2023-04-24T01:41:43;6.25;;;2.50;;
73593;SDS011;64760;53.404;23.498;2023-04-24T01:44:11;6.25;;;2.80;;
73593;SDS011;64760;53.404;23.498;2023-04-24T01:46:37;5.00;;;2.60;;
73593;SDS011;64760;53.404;23.498;2023-04-24T01:49:04;5.60;;;2.85;;
73593;SDS011;64760;53.404;23.498;2023-04-24T01:51:30;4.03;;;2.28;;
73593;SDS011;64760;53.404;23.498;2023-04-24T01:53:56;4.18;;;2.05;;
73593;SDS011;64760;53.404;23.498;2023-04-24T01:56:22;4.35;;;2.17;;
73593;SDS011;64760;53.404;23.498;2023-04-24T01:58:50;4.13;;;2.20;;
73593;SDS011;64760;53.404;23.498;2023-04-24T02:01:19;5.07;;;2.30;;
73593;SDS011;64760;53.404;23.498;2023-04-24T02:03:47;4.57;;;2.17;;
73593;SDS011;64760;53.404;23.498;2023-04-24T02:06:13;4.95;;;2.47;;
73593;SDS011;64760;53.404;23.498;2023-04-24T02:08:40;8.48;;;2.45;;
73593;SDS011;64760;53.404;23.498;2023-04-24T02:11:08;5.03;;;2.25;;
73593;SDS011;64760;53.404;23.498;2023-04-24T02:13:35;3.97;;;2.30;;
73593;SDS011;64760;53.404;23.498;2023-04-24T02:16:02;4.88;;;2.72;;
73593;SDS011;64760;53.404;23.498;2023-04-24T02:18:30;3.85;;;2.03;;
73593;SDS011;64760;53.404;23.498;2023-04-24T02:20:56;5.72;;;2.50;;
73593;SDS011;64760;53.404;23.498;2023-04-24T02:23:23;5.43;;;2.30;;
73593;SDS011;64760;53.404;23.498;2023-04-24T02:25:49;4.10;;;2.20;;
73593;SDS011;64760;53.404;23.498;2023-04-24T02:28:17;5.03;;;2.00;;
73593;SDS011;64760;53.404;23.498;2023-04-24T02:30:43;5.25;;;2.95;;
73593;SDS011;64760;53.404;23.498;2023-04-24T02:33:09;3.88;;;2.00;;
73593;SDS011;64760;53.404;23.498;2023-04-24T02:35:36;4.32;;;2.30;;
73593;SDS011;64760;53.404;23.498;2023-04-24T02:38:03;5.20;;;2.20;;
73593;SDS011;64760;53.404;23.498;2023-04-24T02:40:29;4.72;;;2.17;;
73593;SDS011;64760;53.404;23.498;2023-04-24T02:42:56;4.70;;;2.28;;
73593;SDS011;64760;53.404;23.498;2023-04-24T02:45:23;5.40;;;2.25;;
73593;SDS011;64760;53.404;23.498;2023-04-24T02:47:50;4.43;;;1.92;;
73593;SDS011;64760;53.404;23.498;2023-04-24T02:50:16;6.03;;;2.50;;
73593;SDS011;64760;53.404;23.498;2023-04-24T02:52:42;4.07;;;2.17;;
73593;SDS011;64760;53.404;23.498;2023-04-24T02:55:08;4.70;;;2.15;;
73593;SDS011;64760;53.404;23.498;2023-04-24T02:57:35;4.13;;;2.00;;
73593;SDS011;64760;53.404;23.498;2023-04-24T03:00:01;4.35;;;2.25;;
73593;SDS011;64760;53.404;23.498;2023-04-24T03:02:29;6.07;;;2.53;;
73593;SDS011;64760;53.404;23.498;2023-04-24T03:04:55;6.95;;;2.35;;
73593;SDS011;64760;53.404;23.498;2023-04-24T03:07:23;5.93;;;2.53;;
73593;SDS011;64760;53.404;23.498;2023-04-24T03:09:49;3.72;;;2.17;;
73593;SDS011;64760;53.404;23.498;2023-04-24T03:12:16;6.32;;;3.20;;
73593;SDS011;64760;53.404;23.498;2023-04-24T03:14:43;4.75;;;2.17;;
73593;SDS011;64760;53.404;23.498;2023-04-24T03:17:10;5.43;;;2.53;;
73593;SDS011;64760;53.404;23.498;2023-04-24T03:19:36;7.97;;;2.65;;
73593;SDS011;64760;53.404;23.498;2023-04-24T03:22:08;4.38;;;2.22;;
73593;SDS011;64760;53.404;23.498;2023-04-24T03:24:36;6.78;;;2.55;;
73593;SDS011;64760;53.404;23.498;2023-04-24T03:27:02;6.22;;;3.20;;
73593;SDS011;64760;53.404;23.498;2023-04-24T03:29:48;3.90;;;2.63;;
73593;SDS011;64760;53.404;23.498;2023-04-24T03:32:23;4.15;;;2.42;;
73593;SDS011;64760;53.404;23.498;2023-04-24T03:34:49;5.38;;;2.60;;
73593;SDS011;64760;53.404;23.498;2023-04-24T03:37:16;5.75;;;2.72;;
73593;SDS011;64760;53.404;23.498;2023-04-24T03:39:48;4.38;;;2.45;;
73593;SDS011;64760;53.404;23.498;2023-04-24T03:42:17;5.65;;;2.75;;
73593;SDS011;64760;53.404;23.498;2023-04-24T03:44:51;5.95;;;2.90;;
73593;SDS011;64760;53.404;23.498;2023-04-24T03:47:19;5.45;;;2.83;;
73593;SDS011;64760;53.404;23.498;2023-04-24T03:49:46;5.65;;;3.08;;
73593;SDS011;64760;53.404;23.498;2023-04-24T03:52:13;5.20;;;2.78;;
73593;SDS011;64760;53.404;23.498;2023-04-24T03:54:40;6.10;;;2.53;;
73593;SDS011;64760;53.404;23.498;2023-04-24T03:57:06;5.35;;;2.50;;
73593;SDS011;64760;53.404;23.498;2023-04-24T03:59:34;6.18;;;2.40;;
73593;SDS011;64760;53.404;23.498;2023-04-24T04:02:10;5.60;;;2.70;;
73593;SDS011;64760;53.404;23.498;2023-04-24T04:04:37;6.47;;;3.13;;
73593;SDS011;64760;53.404;23.498;2023-04-24T04:07:03;5.00;;;2.35;;
73593;SDS011;64760;53.404;23.498;2023-04-24T04:09:31;6.07;;;2.88;;
73593;SDS011;64760;53.404;23.498;2023-04-24T04:11:59;8.32;;;2.67;;
73593;SDS011;64760;53.404;23.498;2023-04-24T04:14:27;5.15;;;2.67;;
73593;SDS011;64760;53.404;23.498;2023-04-24T04:16:53;5.40;;;2.80;;
73593;SDS011;64760;53.404;23.498;2023-04-24T04:19:19;5.35;;;3.10;;
73593;SDS011;64760;53.404;23.498;2023-04-24T04:21:46;5.20;;;3.10;;
73593;SDS011;64760;53.404;23.498;2023-04-24T04:24:28;5.75;;;2.83;;
73593;SDS011;64760;53.404;23.498;2023-04-24T04:26:56;4.88;;;3.10;;
73593;SDS011;64760;53.404;23.498;2023-04-24T04:29:27;4.68;;;2.55;;
73593;SDS011;64760;53.404;23.498;2023-04-24T04:31:55;4.10;;;2.50;;
73593;SDS011;64760;53.404;23.498;2023-04-24T04:34:21;5.85;;;2.80;;
73593;SDS011;64760;53.404;23.498;2023-04-24T04:36:49;5.75;;;2.58;;
73593;SDS011;64760;53.404;23.498;2023-04-24T04:39:34;6.85;;;3.00;;
73593;SDS011;64760;53.404;23.498;2023-04-24T04:42:04;4.57;;;2.65;;
73593;SDS011;64760;53.404;23.498;2023-04-24T04:44:43;7.55;;;2.90;;
73593;SDS011;64760;53.404;23.498;2023-04-24T04:47:16;4.43;;;2.67;;
73593;SDS011;64760;53.404;23.498;2023-04-24T04:52:17;6.55;;;3.22;;
73593;SDS011;64760;53.404;23.498;2023-04-24T04:54:46;5.22;;;3.00;;
73593;SDS011;64760;53.404;23.498;2023-04-24T04:57:13;6.03;;;2.88;;
73593;SDS011;64760;53.404;23.498;2023-04-24T04:59:39;5.55;;;2.88;;
73593;SDS011;64760;53.404;23.498;2023-04-24T05:02:11;7.20;;;2.97;;
73593;SDS011;64760;53.404;23.498;2023-04-24T05:04:38;6.00;;;2.97;;
73593;SDS011;64760;53.404;23.498;2023-04-24T05:07:04;6.68;;;3.10;;
73593;SDS011;64760;53.404;23.498;2023-04-24T05:09:33;6.93;;;3.05;;
73593;SDS011;64760;53.404;23.498;2023-04-24T05:12:03;8.25;;;2.83;;
73593;SDS011;64760;53.404;23.498;2023-04-24T05:14:33;4.35;;;2.60;;
73593;SDS011;64760;53.404;23.498;2023-04-24T05:17:00;5.22;;;3.10;;
73593;SDS011;64760;53.404;23.498;2023-04-24T05:19:26;5.03;;;2.85;;
73593;SDS011;64760;53.404;23.498;2023-04-24T05:21:53;6.40;;;2.83;;
73593;SDS011;64760;53.404;23.498;2023-04-24T05:24:20;3.97;;;2.30;;
73593;SDS011;64760;53.404;23.498;2023-04-24T05:27:10;4.35;;;2.58;;
73593;SDS011;64760;53.404;23.498;2023-04-24T05:29:39;6.00;;;3.15;;
73593;SDS011;64760;53.404;23.498;2023-04-24T05:32:08;5.60;;;2.75;;
73593;SDS011;64760;53.404;23.498;2023-04-24T05:34:34;6.47;;;3.30;;
73593;SDS011;64760;53.404;23.498;2023-04-24T05:37:01;6.38;;;2.90;;
73593;SDS011;64760;53.404;23.498;2023-04-24T05:39:27;6.30;;;3.03;;
73593;SDS011;64760;53.404;23.498;2023-04-24T05:41:54;4.68;;;2.90;;
73593;SDS011;64760;53.404;23.498;2023-04-24T05:44:23;5.05;;;2.60;;
73593;SDS011;64760;53.404;23.498;2023-04-24T05:46:50;5.65;;;3.17;;
73593;SDS011;64760;53.404;23.498;2023-04-24T05:49:17;9.48;;;3.15;;
73593;SDS011;64760;53.404;23.498;2023-04-24T05:51:45;9.45;;;3.10;;
73593;SDS011;64760;53.404;23.498;2023-04-24T05:54:12;7.43;;;3.42;;
73593;SDS011;64760;53.404;23.498;2023-04-24T05:56:38;7.63;;;2.58;;
73593;SDS011;64760;53.404;23.498;2023-04-24T05:59:06;5.10;;;2.80;;
73593;SDS011;64760;53.404;23.498;2023-04-24T06:01:34;6.32;;;3.03;;
73593;SDS011;64760;53.404;23.498;2023-04-24T06:04:12;5.22;;;2.65;;
73593;SDS011;64760;53.404;23.498;2023-04-24T06:06:40;5.63;;;2.75;;
73593;SDS011;64760;53.404;23.498;2023-04-24T06:09:06;5.35;;;3.00;;
73593;SDS011;64760;53.404;23.498;2023-04-24T06:11:34;6.97;;;3.30;;
73593;SDS011;64760;53.404;23.498;2023-04-24T06:14:00;9.05;;;3.45;;
73593;SDS011;64760;53.404;23.498;2023-04-24T06:16:50;5.05;;;2.70;;
73593;SDS011;64760;53.404;23.498;2023-04-24T06:19:30;6.00;;;3.22;;
73593;SDS011;64760;53.404;23.498;2023-04-24T06:21:57;11.25;;;3.15;;
73593;SDS011;64760;53.404;23.498;2023-04-24T06:24:26;8.10;;;3.38;;
73593;SDS011;64760;53.404;23.498;2023-04-24T06:26:54;4.60;;;2.80;;
73593;SDS011;64760;53.404;23.498;2023-04-24T06:29:20;6.57;;;3.17;;
73593;SDS011;64760;53.404;23.498;2023-04-24T06:31:47;6.13;;;3.03;;
73593;SDS011;64760;53.404;23.498;2023-04-24T06:34:13;6.53;;;2.80;;
73593;SDS011;64760;53.404;23.498;2023-04-24T06:36:40;9.23;;;3.58;;
73593;SDS011;64760;53.404;23.498;2023-04-24T06:39:07;6.90;;;3.35;;
73593;SDS011;64760;53.404;23.498;2023-04-24T06:41:33;5.97;;;3.40;;
73593;SDS011;64760;53.404;23.498;2023-04-24T06:44:00;4.25;;;2.92;;
73593;SDS011;64760;53.404;23.498;2023-04-24T06:46:27;7.90;;;3.25;;
73593;SDS011;64760;53.404;23.498;2023-04-24T06:48:53;7.32;;;3.15;;
73593;SDS011;64760;53.404;23.498;2023-04-24T06:51:23;7.50;;;3.30;;
73593;SDS011;64760;53.404;23.498;2023-04-24T06:53:50;6.22;;;3.15;;
73593;SDS011;64760;53.404;23.498;2023-04-24T06:56:17;6.60;;;2.55;;
73593;SDS011;64760;53.404;23.498;2023-04-24T06:58:44;8.15;;;3.63;;
73593;SDS011;64760;53.404;23.498;2023-04-24T07:01:11;6.78;;;3.63;;
73593;SDS011;64760;53.404;23.498;2023-04-24T07:03:37;5.80;;;3.65;;
73593;SDS011;64760;53.404;23.498;2023-04-24T07:06:04;6.82;;;3.90;;
73593;SDS011;64760;53.404;23.498;2023-04-24T07:08:31;5.93;;;3.67;;
73593;SDS011;64760;53.404;23.498;2023-04-24T07:10:59;7.70;;;3.00;;
73593;SDS011;64760;53.404;23.498;2023-04-24T07:13:26;6.13;;;3.83;;
73593;SDS011;64760;53.404;23.498;2023-04-24T07:15:53;4.57;;;3.00;;
73593;SDS011;64760;53.404;23.498;2023-04-24T07:18:26;5.72;;;3.33;;
73593;SDS011;64760;53.404;23.498;2023-04-24T07:20:55;6.90;;;2.63;;
73593;SDS011;64760;53.404;23.498;2023-04-24T07:23:22;7.28;;;3.53;;
73593;SDS011;64760;53.404;23.498;2023-04-24T07:25:48;4.65;;;2.70;;
73593;SDS011;64760;53.404;23.498;2023-04-24T07:28:15;5.65;;;3.20;;
73593;SDS011;64760;53.404;23.498;2023-04-24T07:30:41;6.93;;;3.85;;
73593;SDS011;64760;53.404;23.498;2023-04-24T07:33:07;6.13;;;3.65;;
73593;SDS011;64760;53.404;23.498;2023-04-24T07:35:34;6.20;;;3.90;;
73593;SDS011;64760;53.404;23.498;2023-04-24T07:38:01;6.15;;;3.65;;
73593;SDS011;64760;53.404;23.498;2023-04-24T07:40:28;6.63;;;3.67;;
73593;SDS011;64760;53.404;23.498;2023-04-24T07:42:54;6.95;;;3.65;;
73593;SDS011;64760;53.404;23.498;2023-04-24T07:45:21;6.25;;;3.83;;
73593;SDS011;64760;53.404;23.498;2023-04-24T07:47:49;7.95;;;4.10;;
73593;SDS011;64760;53.404;23.498;2023-04-24T07:50:16;6.03;;;3.85;;
73593;SDS011;64760;53.404;23.498;2023-04-24T07:52:42;6.65;;;4.13;;
73593;SDS011;64760;53.404;23.498;2023-04-24T07:55:09;11.60;;;5.57;;
73593;SDS011;64760;53.404;23.498;2023-04-24T07:57:35;8.20;;;4.05;;
73593;SDS011;64760;53.404;23.498;2023-04-24T08:00:03;7.40;;;3.38;;
73593;SDS011;64760;53.404;23.498;2023-04-24T08:02:37;6.88;;;3.67;;
73593;SDS011;64760;53.404;23.498;2023-04-24T08:05:04;6.40;;;3.92;;
73593;SDS011;64760;53.404;23.498;2023-04-24T08:07:31;5.63;;;3.33;;
73593;SDS011;64760;53.404;23.498;2023-04-24T08:09:57;6.80;;;3.75;;
73593;SDS011;64760;53.404;23.498;2023-04-24T08:14:51;5.22;;;3.30;;
73593;SDS011;64760;53.404;23.498;2023-04-24T08:17:17;6.53;;;4.20;;
73593;SDS011;64760;53.404;23.498;2023-04-24T08:19:44;10.73;;;3.60;;
73593;SDS011;64760;53.404;23.498;2023-04-24T08:22:14;6.30;;;3.42;;
73593;SDS011;64760;53.404;23.498;2023-04-24T08:24:41;6.82;;;3.88;;
73593;SDS011;64760;53.404;23.498;2023-04-24T08:27:08;5.43;;;3.50;;
73593;SDS011;64760;53.404;23.498;2023-04-24T08:29:35;8.52;;;3.42;;
73593;SDS011;64760;53.404;23.498;2023-04-24T08:32:01;10.68;;;4.07;;
73593;SDS011;64760;53.404;23.498;2023-04-24T08:34:28;6.45;;;3.28;;
73593;SDS011;64760;53.404;23.498;2023-04-24T08:36:54;8.40;;;3.90;;
73593;SDS011;64760;53.404;23.498;2023-04-24T08:39:20;5.53;;;2.78;;
73593;SDS011;64760;53.404;23.498;2023-04-24T08:41:47;9.13;;;3.88;;
73593;SDS011;64760;53.404;23.498;2023-04-24T08:44:14;8.85;;;3.78;;
73593;SDS011;64760;53.404;23.498;2023-04-24T08:46:43;6.88;;;3.63;;
73593;SDS011;64760;53.404;23.498;2023-04-24T08:49:14;8.02;;;3.50;;
73593;SDS011;64760;53.404;23.498;2023-04-24T08:51:44;7.28;;;3.55;;
73593;SDS011;64760;53.404;23.498;2023-04-24T08:54:13;8.05;;;3.88;;
73593;SDS011;64760;53.404;23.498;2023-04-24T08:56:40;5.90;;;3.35;;
73593;SDS011;64760;53.404;23.498;2023-04-24T08:59:10;5.93;;;3.50;;
73593;SDS011;64760;53.404;23.498;2023-04-24T09:01:37;4.80;;;3.22;;
73593;SDS011;64760;53.404;23.498;2023-04-24T09:04:05;6.05;;;3.60;;
73593;SDS011;64760;53.404;23.498;2023-04-24T09:06:35;7.07;;;3.60;;
73593;SDS011;64760;53.404;23.498;2023-04-24T09:09:02;6.05;;;3.13;;
73593;SDS011;64760;53.404;23.498;2023-04-24T09:11:31;5.13;;;3.15;;
73593;SDS011;64760;53.404;23.498;2023-04-24T09:14:01;5.70;;;3.20;;
73593;SDS011;64760;53.404;23.498;2023-04-24T09:16:27;5.25;;;3.50;;
73593;SDS011;64760;53.404;23.498;2023-04-24T09:18:55;8.32;;;3.70;;
73593;SDS011;64760;53.404;23.498;2023-04-24T09:21:22;4.80;;;2.85;;
73593;SDS011;64760;53.404;23.498;2023-04-24T09:23:58;5.45;;;3.08;;
73593;SDS011;64760;53.404;23.498;2023-04-24T09:26:28;7.80;;;3.70;;
73593;SDS011;64760;53.404;23.498;2023-04-24T09:28:58;6.03;;;3.65;;
73593;SDS011;64760;53.404;23.498;2023-04-24T09:31:26;4.18;;;3.28;;
73593;SDS011;64760;53.404;23.498;2023-04-24T09:33:54;6.07;;;3.50;;
73593;SDS011;64760;53.404;23.498;2023-04-24T09:36:34;6.57;;;3.53;;
73593;SDS011;64760;53.404;23.498;2023-04-24T09:39:07;4.82;;;3.00;;
73593;SDS011;64760;53.404;23.498;2023-04-24T09:41:48;5.68;;;3.30;;
73593;SDS011;64760;53.404;23.498;2023-04-24T09:44:22;6.45;;;3.10;;
73593;SDS011;64760;53.404;23.498;2023-04-24T09:46:52;8.77;;;3.53;;
73593;SDS011;64760;53.404;23.498;2023-04-24T09:49:29;6.15;;;3.05;;
73593;SDS011;64760;53.404;23.498;2023-04-24T09:52:07;5.55;;;3.17;;
73593;SDS011;64760;53.404;23.498;2023-04-24T09:54:35;4.25;;;2.65;;
73593;SDS011;64760;53.404;23.498;2023-04-24T09:57:05;7.78;;;3.47;;
73593;SDS011;64760;53.404;23.498;2023-04-24T09:59:34;6.55;;;3.13;;
73593;SDS011;64760;53.404;23.498;2023-04-24T10:02:00;6.40;;;3.65;;
73593;SDS011;64760;53.404;23.498;2023-04-24T10:04:28;5.15;;;3.47;;
73593;SDS011;64760;53.404;23.498;2023-04-24T10:06:55;4.65;;;3.10;;
73593;SDS011;64760;53.404;23.498;2023-04-24T10:09:23;5.18;;;3.22;;
73593;SDS011;64760;53.404;23.498;2023-04-24T10:11:52;5.50;;;3.53;;
73593;SDS011;64760;53.404;23.498;2023-04-24T10:14:21;6.00;;;3.25;;
73593;SDS011;64760;53.404;23.498;2023-04-24T10:16:49;6.55;;;2.85;;
73593;SDS011;64760;53.404;23.498;2023-04-24T10:19:18;5.00;;;3.03;;
73593;SDS011;64760;53.404;23.498;2023-04-24T10:24:14;4.80;;;2.63;;
73593;SDS011;64760;53.404;23.498;2023-04-24T10:26:42;5.82;;;3.50;;
73593;SDS011;64760;53.404;23.498;2023-04-24T10:29:11;5.70;;;3.80;;
73593;SDS011;64760;53.404;23.498;2023-04-24T10:31:38;5.00;;;3.50;;
73593;SDS011;64760;53.404;23.498;2023-04-24T10:34:06;5.53;;;3.42;;
73593;SDS011;64760;53.404;23.498;2023-04-24T10:36:34;5.43;;;3.42;;
73593;SDS011;64760;53.404;23.498;2023-04-24T10:39:05;4.93;;;3.17;;
73593;SDS011;64760;53.404;23.498;2023-04-24T10:41:36;6.22;;;3.70;;
73593;SDS011;64760;53.404;23.498;2023-04-24T10:44:04;9.70;;;3.17;;
73593;SDS011;64760;53.404;23.498;2023-04-24T10:46:35;6.55;;;3.45;;
73593;SDS011;64760;53.404;23.498;2023-04-24T10:49:06;6.85;;;3.35;;
73593;SDS011;64760;53.404;23.498;2023-04-24T10:51:50;5.15;;;3.45;;
73593;SDS011;64760;53.404;23.498;2023-04-24T10:54:35;6.05;;;3.20;;
73593;SDS011;64760;53.404;23.498;2023-04-24T10:59:44;4.68;;;3.13;;
73593;SDS011;64760;53.404;23.498;2023-04-24T11:02:13;4.30;;;2.67;;
73593;SDS011;64760;53.404;23.498;2023-04-24T11:04:41;5.13;;;3.03;;
73593;SDS011;64760;53.404;23.498;2023-04-24T11:07:13;5.93;;;3.30;;
73593;SDS011;64760;53.404;23.498;2023-04-24T11:09:41;6.22;;;3.40;;
73593;SDS011;64760;53.404;23.498;2023-04-24T11:12:11;5.25;;;3.10;;
73593;SDS011;64760;53.404;23.498;2023-04-24T11:17:31;7.28;;;3.55;;
73593;SDS011;64760;53.404;23.498;2023-04-24T11:22:33;8.50;;;3.30;;
73593;SDS011;64760;53.404;23.498;2023-04-24T11:25:02;4.30;;;2.40;;
73593;SDS011;64760;53.404;23.498;2023-04-24T11:27:31;5.60;;;3.55;;
73593;SDS011;64760;53.404;23.498;2023-04-24T11:30:05;6.38;;;2.83;;
73593;SDS011;64760;53.404;23.498;2023-04-24T11:32:35;7.18;;;3.08;;
73593;SDS011;64760;53.404;23.498;2023-04-24T11:35:08;5.78;;;2.65;;
73593;SDS011;64760;53.404;23.498;2023-04-24T11:37:39;4.60;;;3.13;;
73593;SDS011;64760;53.404;23.498;2023-04-24T11:40:09;4.50;;;2.40;;
73593;SDS011;64760;53.404;23.498;2023-04-24T11:42:37;4.28;;;2.63;;
73593;SDS011;64760;53.404;23.498;2023-04-24T11:45:09;5.10;;;2.95;;
73593;SDS011;64760;53.404;23.498;2023-04-24T11:47:37;5.05;;;3.33;;
73593;SDS011;64760;53.404;23.498;2023-04-24T11:50:05;4.00;;;2.58;;
73593;SDS011;64760;53.404;23.498;2023-04-24T11:52:33;5.40;;;2.47;;
73593;SDS011;64760;53.404;23.498;2023-04-24T11:55:03;5.57;;;2.95;;
73593;SDS011;64760;53.404;23.498;2023-04-24T12:00:03;4.40;;;2.70;;
73593;SDS011;64760;53.404;23.498;2023-04-24T12:02:38;4.75;;;2.75;;
73593;SDS011;64760;53.404;23.498;2023-04-24T12:05:04;4.93;;;3.03;;
73593;SDS011;64760;53.404;23.498;2023-04-24T12:07:31;6.13;;;3.35;;
73593;SDS011;64760;53.404;23.498;2023-04-24T12:10:08;5.10;;;3.40;;
73593;SDS011;64760;53.404;23.498;2023-04-24T12:12:35;5.90;;;2.88;;
73593;SDS011;64760;53.404;23.498;2023-04-24T12:15:05;5.30;;;2.97;;
73593;SDS011;64760;53.404;23.498;2023-04-24T12:17:33;7.70;;;2.95;;
73593;SDS011;64760;53.404;23.498;2023-04-24T12:20:03;5.10;;;2.90;;
73593;SDS011;64760;53.404;23.498;2023-04-24T12:22:49;5.35;;;3.28;;
73593;SDS011;64760;53.404;23.498;2023-04-24T12:25:20;4.90;;;2.90;;
73593;SDS011;64760;53.404;23.498;2023-04-24T12:28:11;5.20;;;3.15;;
73593;SDS011;64760;53.404;23.498;2023-04-24T12:30:42;3.67;;;2.33;;
73593;SDS011;64760;53.404;23.498;2023-04-24T12:33:10;6.32;;;3.03;;
73593;SDS011;64760;53.404;23.498;2023-04-24T12:35:37;4.40;;;2.63;;
73593;SDS011;64760;53.404;23.498;2023-04-24T12:41:06;5.45;;;2.97;;
73593;SDS011;64760;53.404;23.498;2023-04-24T12:43:33;4.43;;;2.50;;
73593;SDS011;64760;53.404;23.498;2023-04-24T12:46:00;7.55;;;2.85;;
73593;SDS011;64760;53.404;23.498;2023-04-24T12:48:27;5.13;;;2.85;;
73593;SDS011;64760;53.404;23.498;2023-04-24T12:50:54;4.70;;;2.70;;
73593;SDS011;64760;53.404;23.498;2023-04-24T12:53:22;5.22;;;3.10;;
73593;SDS011;64760;53.404;23.498;2023-04-24T12:55:49;6.07;;;2.80;;
73593;SDS011;64760;53.404;23.498;2023-04-24T12:58:19;3.92;;;2.53;;
73593;SDS011;64760;53.404;23.498;2023-04-24T13:00:46;4.65;;;2.67;;
73593;SDS011;64760;53.404;23.498;2023-04-24T13:03:13;5.35;;;2.47;;
73593;SDS011;64760;53.404;23.498;2023-04-24T13:05:41;4.63;;;2.80;;
73593;SDS011;64760;53.404;23.498;2023-04-24T13:08:08;7.97;;;3.15;;
73593;SDS011;64760;53.404;23.498;2023-04-24T13:10:34;5.22;;;2.58;;
73593;SDS011;64760;53.404;23.498;2023-04-24T13:13:01;6.25;;;2.63;;
73593;SDS011;64760;53.404;23.498;2023-04-24T13:15:30;4.18;;;2.65;;
73593;SDS011;64760;53.404;23.498;2023-04-24T13:17:58;5.53;;;2.40;;
73593;SDS011;64760;53.404;23.498;2023-04-24T13:20:25;5.10;;;2.50;;
73593;SDS011;64760;53.404;23.498;2023-04-24T13:22:52;10.77;;;3.10;;
73593;SDS011;64760;53.404;23.498;2023-04-24T13:25:19;4.60;;;2.67;;
73593;SDS011;64760;53.404;23.498;2023-04-24T13:27:46;3.83;;;2.40;;
73593;SDS011;64760;53.404;23.498;2023-04-24T13:30:12;4.63;;;2.70;;
73593;SDS011;64760;53.404;23.498;2023-04-24T13:32:39;4.68;;;2.45;;
73593;SDS011;64760;53.404;23.498;2023-04-24T13:35:05;3.60;;;2.30;;
73593;SDS011;64760;53.404;23.498;2023-04-24T13:37:32;7.70;;;2.88;;
73593;SDS011;64760;53.404;23.498;2023-04-24T13:39:58;5.85;;;2.65;;
73593;SDS011;64760;53.404;23.498;2023-04-24T13:42:25;4.50;;;2.53;;
73593;SDS011;64760;53.404;23.498;2023-04-24T13:44:52;5.05;;;2.83;;
73593;SDS011;64760;53.404;23.498;2023-04-24T13:47:19;5.05;;;2.35;;
73593;SDS011;64760;53.404;23.498;2023-04-24T13:49:46;4.60;;;2.95;;
73593;SDS011;64760;53.404;23.498;2023-04-24T13:52:12;8.23;;;4.55;;
73593;SDS011;64760;53.404;23.498;2023-04-24T13:54:39;5.25;;;3.17;;
73593;SDS011;64760;53.404;23.498;2023-04-24T13:57:05;3.92;;;2.70;;
73593;SDS011;64760;53.404;23.498;2023-04-24T13:59:31;4.68;;;3.10;;
73593;SDS011;64760;53.404;23.498;2023-04-24T14:01:58;6.90;;;2.90;;
73593;SDS011;64760;53.404;23.498;2023-04-24T14:04:24;5.88;;;2.20;;
73593;SDS011;64760;53.404;23.498;2023-04-24T14:06:51;3.92;;;2.40;;
73593;SDS011;64760;53.404;23.498;2023-04-24T14:09:17;4.13;;;2.10;;
73593;SDS011;64760;53.404;23.498;2023-04-24T14:11:44;4.75;;;2.20;;
73593;SDS011;64760;53.404;23.498;2023-04-24T14:14:10;4.40;;;2.53;;
73593;SDS011;64760;53.404;23.498;2023-04-24T14:16:37;6.30;;;2.58;;
73593;SDS011;64760;53.404;23.498;2023-04-24T14:19:04;4.13;;;2.42;;
73593;SDS011;64760;53.404;23.498;2023-04-24T14:21:31;4.63;;;2.65;;
73593;SDS011;64760;53.404;23.498;2023-04-24T14:23:59;5.13;;;2.47;;
73593;SDS011;64760;53.404;23.498;2023-04-24T14:26:25;4.03;;;2.42;;
73593;SDS011;64760;53.404;23.498;2023-04-24T14:28:51;5.18;;;2.60;;
73593;SDS011;64760;53.404;23.498;2023-04-24T14:31:18;4.60;;;2.70;;
73593;SDS011;64760;53.404;23.498;2023-04-24T14:33:45;4.28;;;2.50;;
73593;SDS011;64760;53.404;23.498;2023-04-24T14:36:11;5.70;;;3.00;;
73593;SDS011;64760;53.404;23.498;2023-04-24T14:38:38;4.97;;;2.60;;
73593;SDS011;64760;53.404;23.498;2023-04-24T14:41:04;4.78;;;3.05;;
73593;SDS011;64760;53.404;23.498;2023-04-24T14:43:35;5.32;;;2.58;;
73593;SDS011;64760;53.404;23.498;2023-04-24T14:48:29;5.35;;;3.65;;
73593;SDS011;64760;53.404;23.498;2023-04-24T14:50:56;5.32;;;2.97;;
73593;SDS011;64760;53.404;23.498;2023-04-24T14:53:22;7.65;;;3.55;;
73593;SDS011;64760;53.404;23.498;2023-04-24T14:55:48;7.85;;;4.03;;
73593;SDS011;64760;53.404;23.498;2023-04-24T14:58:16;7.20;;;3.92;;
73593;SDS011;64760;53.404;23.498;2023-04-24T15:00:43;5.60;;;2.75;;
73593;SDS011;64760;53.404;23.498;2023-04-24T15:03:18;5.43;;;3.63;;
73593;SDS011;64760;53.404;23.498;2023-04-24T15:05:51;4.43;;;2.33;;